Time;durP1;ratioP1;P1;durP2;ratioP2;P2;SDS_P1;SDS_P2;PMS_P1;PMS_P2;Temp;Humidity;BMP_temperature;BMP_pressure;BME280_temperature;BME280_humidity;BME280_pressure;Samples;Min_cycle;Max_cycle;Signal;HPM_P1;HPM_P2
2023/10/22 00:00:21;;;;;;;16.13;8.77;;;;;;;9.07;100.00;93071.31;5066934;28;20489;-62
2023/10/22 00:02:48;;;;;;;13.93;8.13;;;;;;;9.02;100.00;93074.59;5067957;28;20500;-61
2023/10/22 00:05:15;;;;;;;14.32;9.65;;;;;;;8.94;100.00;93079.44;5067568;28;20454;-62
2023/10/22 00:07:42;;;;;;;12.77;8.38;;;;;;;8.97;100.00;93077.81;5067337;28;20040;-62
2023/10/22 00:10:09;;;;;;;12.70;7.55;;;;;;;8.97;100.00;93077.81;5050298;28;20048;-59
2023/10/22 00:12:36;;;;;;;13.52;8.20;;;;;;;8.91;100.00;93077.53;5065662;28;20074;-59
2023/10/22 00:15:03;;;;;;;11.93;7.30;;;;;;;8.91;100.00;93074.03;5068399;28;20040;-62
2023/10/22 00:17:30;;;;;;;14.05;7.53;;;;;;;8.95;100.00;93086.47;5063990;28;20043;-60
2023/10/22 00:19:56;;;;;;;12.73;7.45;;;;;;;8.90;100.00;93092.44;5068120;28;20417;-59
2023/10/22 00:22:23;;;;;;;14.38;7.90;;;;;;;8.93;100.00;93091.59;5067450;28;20408;-60
2023/10/22 00:24:50;;;;;;;13.85;7.82;;;;;;;8.94;100.00;93093.13;5068481;28;20400;-60
2023/10/22 00:27:17;;;;;;;14.77;8.20;;;;;;;8.98;100.00;93090.31;5068071;28;20045;-59
2023/10/22 00:29:44;;;;;;;14.75;8.48;;;;;;;9.05;100.00;93092.09;5067726;28;20048;-59
2023/10/22 00:32:11;;;;;;;15.45;8.57;;;;;;;9.13;100.00;93093.47;5068204;28;20037;-59
2023/10/22 00:34:37;;;;;;;15.02;7.72;;;;;;;9.15;100.00;93108.28;5068797;28;20036;-59
2023/10/22 00:37:05;;;;;;;15.38;8.00;;;;;;;9.14;100.00;93097.78;5071934;28;20056;-60
2023/10/22 00:39:32;;;;;;;12.70;7.67;;;;;;;9.16;100.00;93104.34;5071815;28;20049;-60
2023/10/22 00:41:58;;;;;;;15.20;8.13;;;;;;;9.13;100.00;93101.69;5072300;28;20032;-60
2023/10/22 00:44:25;;;;;;;36.97;20.95;;;;;;;9.18;100.00;93107.44;5054344;28;20481;-61
2023/10/22 00:46:53;;;;;;;21.33;12.10;;;;;;;9.20;100.00;93107.78;5072289;28;20500;-59
2023/10/22 00:49:19;;;;;;;22.75;12.38;;;;;;;9.23;100.00;93100.69;5071840;28;20497;-60
2023/10/22 00:51:48;;;;;;;16.23;8.90;;;;;;;9.20;100.00;93104.28;5071050;28;20391;-60
2023/10/22 00:54:16;;;;;;;16.25;9.13;;;;;;;9.16;100.00;93115.31;5071826;28;20051;-60
2023/10/22 00:56:44;;;;;;;15.85;8.60;;;;;;;9.15;100.00;93111.00;5071236;28;20045;-60
2023/10/22 00:59:14;;;;;;;15.32;7.95;;;;;;;9.12;100.00;93108.38;5070950;28;20101;-60
2023/10/22 01:01:42;;;;;;;16.30;8.20;;;;;;;9.14;100.00;93111.47;5071137;28;20101;-60
2023/10/22 01:04:10;;;;;;;14.83;8.37;;;;;;;9.09;100.00;93104.50;5071241;28;20051;-60
2023/10/22 01:06:36;;;;;;;15.60;8.30;;;;;;;9.07;100.00;93109.63;5071051;28;20751;-60
2023/10/22 01:09:04;;;;;;;15.27;8.18;;;;;;;9.05;100.00;93103.06;5071917;28;20037;-60
2023/10/22 01:11:30;;;;;;;15.07;8.30;;;;;;;8.98;100.00;93109.47;5069234;28;20049;-60
2023/10/22 01:13:57;;;;;;;17.30;8.93;;;;;;;8.97;100.00;93105.19;5049913;28;20066;-59
2023/10/22 01:16:24;;;;;;;43.67;25.63;;;;;;;8.99;100.00;93111.00;5061600;28;20045;-59
2023/10/22 01:18:51;;;;;;;40.03;21.52;;;;;;;8.98;100.00;93104.75;5071183;28;20474;-60
2023/10/22 01:21:18;;;;;;;14.63;8.25;;;;;;;8.97;100.00;93110.66;5053354;28;20037;-60
2023/10/22 01:23:44;;;;;;;13.95;7.82;;;;;;;8.88;100.00;93116.72;5069999;28;20082;-60
2023/10/22 01:26:13;;;;;;;14.00;8.20;;;;;;;8.75;100.00;93122.06;5071179;28;20085;-59
2023/10/22 01:28:40;;;;;;;14.93;7.93;;;;;;;8.64;100.00;93128.97;5069597;28;20044;-60
2023/10/22 01:31:16;;;;;;;15.38;8.02;;;;;;;8.57;100.00;93127.13;5052919;28;20392;-59
2023/10/22 01:33:43;;;;;;;14.27;7.47;;;;;;;8.50;100.00;93127.28;5069368;28;20418;-59
2023/10/22 01:36:10;;;;;;;14.75;7.72;;;;;;;8.44;100.00;93120.78;5070363;28;20085;-59
2023/10/22 01:38:37;;;;;;;12.82;7.05;;;;;;;8.33;100.00;93124.47;5069560;28;20045;-59
2023/10/22 01:41:08;;;;;;;14.13;7.17;;;;;;;8.26;100.00;93126.56;5053131;28;20047;-60
2023/10/22 01:43:35;;;;;;;12.02;7.10;;;;;;;8.16;100.00;93126.31;5069214;28;20051;-60
2023/10/22 01:46:02;;;;;;;13.63;7.13;;;;;;;8.10;100.00;93124.50;5069452;28;20036;-60
2023/10/22 01:48:28;;;;;;;13.00;6.85;;;;;;;7.98;100.00;93120.41;5052239;28;20071;-59
2023/10/22 01:50:55;;;;;;;11.88;6.55;;;;;;;7.83;100.00;93121.84;5070192;28;20048;-59
2023/10/22 01:53:22;;;;;;;11.20;6.37;;;;;;;7.77;100.00;93116.13;5069792;28;20044;-59
2023/10/22 01:55:49;;;;;;;12.52;6.40;;;;;;;7.73;100.00;93124.38;5070122;28;20034;-59
2023/10/22 01:58:15;;;;;;;10.40;6.05;;;;;;;7.74;100.00;93128.63;5070200;28;20048;-60
2023/10/22 02:00:42;;;;;;;10.40;5.80;;;;;;;7.74;100.00;93116.94;5069075;28;20040;-60
2023/10/22 02:03:09;;;;;;;11.57;5.57;;;;;;;7.72;100.00;93124.78;5070179;28;20044;-59
2023/10/22 02:05:36;;;;;;;12.20;5.67;;;;;;;7.67;100.00;93108.91;5068567;28;20054;-60
2023/10/22 02:08:06;;;;;;;10.30;5.82;;;;;;;7.53;100.00;93129.00;5069746;28;20041;-59
2023/10/22 02:10:33;;;;;;;11.25;6.15;;;;;;;7.46;100.00;93129.88;5069112;28;20401;-59
2023/10/22 02:13:00;;;;;;;12.02;6.20;;;;;;;7.51;100.00;93126.69;5068626;28;20040;-59
2023/10/22 02:15:27;;;;;;;11.43;6.22;;;;;;;7.52;100.00;93139.13;5068818;28;20049;-60
2023/10/22 02:17:54;;;;;;;10.50;5.50;;;;;;;7.49;100.00;93141.94;5069897;28;20508;-59
2023/10/22 02:20:21;;;;;;;10.80;5.72;;;;;;;7.42;100.00;93134.63;5068872;28;20109;-59
2023/10/22 02:22:47;;;;;;;12.70;6.07;;;;;;;7.37;100.00;93137.84;5069833;28;20041;-60
2023/10/22 02:25:15;;;;;;;11.13;6.15;;;;;;;7.28;100.00;93145.78;5069658;28;20044;-58
2023/10/22 02:27:42;;;;;;;10.98;6.25;;;;;;;7.27;100.00;93157.88;5068829;28;20063;-59
2023/10/22 02:30:09;;;;;;;14.17;8.70;;;;;;;7.25;100.00;93152.84;5069242;28;20048;-61
2023/10/22 02:32:36;;;;;;;13.82;8.68;;;;;;;7.18;100.00;93159.19;5051367;28;20040;-61
2023/10/22 02:35:03;;;;;;;13.70;9.07;;;;;;;7.12;100.00;93157.31;5069291;28;20036;-61
2023/10/22 02:37:30;;;;;;;12.90;7.40;;;;;;;7.11;100.00;93153.06;5068992;28;20041;-61
2023/10/22 02:39:57;;;;;;;12.30;6.80;;;;;;;7.07;100.00;93155.06;5051431;28;20063;-62
2023/10/22 02:42:23;;;;;;;9.87;4.67;;;;;;;7.02;100.00;93166.41;5068748;28;20055;-61
2023/10/22 02:44:50;;;;;;;6.47;3.50;;;;;;;6.85;100.00;93165.50;5068875;28;20497;-61
2023/10/22 02:47:17;;;;;;;7.47;4.05;;;;;;;6.84;100.00;93158.47;5069297;28;20059;-61
2023/10/22 02:49:44;;;;;;;7.40;4.38;;;;;;;6.76;100.00;93165.97;5068488;28;20378;-61
2023/10/22 02:52:10;;;;;;;7.75;3.83;;;;;;;6.72;100.00;93170.69;5069324;28;20401;-62
2023/10/22 02:54:37;;;;;;;7.27;3.20;;;;;;;6.70;100.00;93182.03;5068511;28;20041;-61
2023/10/22 02:57:05;;;;;;;6.70;2.80;;;;;;;6.64;100.00;93178.22;5068893;28;20498;-61
2023/10/22 02:59:32;;;;;;;7.00;2.70;;;;;;;6.59;100.00;93176.69;5068351;28;20046;-61
2023/10/22 03:01:58;;;;;;;6.63;2.60;;;;;;;6.60;100.00;93174.75;5068800;28;20071;-62
2023/10/22 03:04:25;;;;;;;5.35;2.50;;;;;;;6.60;100.00;93172.81;5068224;28;20079;-62
2023/10/22 03:06:53;;;;;;;6.00;2.47;;;;;;;6.59;100.00;93179.41;5068628;28;20093;-61
2023/10/22 03:09:19;;;;;;;5.50;2.45;;;;;;;6.54;100.00;93176.38;5068884;28;20070;-62
2023/10/22 03:11:46;;;;;;;4.68;2.30;;;;;;;6.58;100.00;93182.59;5050030;28;20622;-61
2023/10/22 03:14:19;;;;;;;5.00;2.30;;;;;;;6.47;100.00;93181.91;5051073;28;20040;-61
2023/10/22 03:16:47;;;;;;;4.10;2.03;;;;;;;6.46;100.00;93183.88;5067815;28;20467;-61
2023/10/22 03:19:14;;;;;;;4.57;2.00;;;;;;;6.43;100.00;93189.38;5068707;28;20045;-63
2023/10/22 03:21:41;;;;;;;3.72;2.05;;;;;;;6.39;100.00;93187.44;5067775;28;20435;-61
2023/10/22 03:24:11;;;;;;;3.92;1.77;;;;;;;6.34;100.00;93192.59;5068572;28;20114;-61
2023/10/22 03:26:38;;;;;;;5.07;2.00;;;;;;;6.40;100.00;93194.44;5067729;28;20374;-61
2023/10/22 03:29:06;;;;;;;4.40;2.35;;;;;;;6.40;100.00;93199.13;5068474;28;20041;-61
2023/10/22 03:31:33;;;;;;;5.60;2.40;;;;;;;6.41;100.00;93200.66;5067668;28;20044;-61
2023/10/22 03:34:00;;;;;;;5.35;2.83;;;;;;;6.42;100.00;93206.88;5068206;28;20033;-61
2023/10/22 03:36:27;;;;;;;6.15;3.03;;;;;;;6.37;100.00;93206.16;5067694;28;20040;-62
2023/10/22 03:38:53;;;;;;;7.07;2.80;;;;;;;6.39;100.00;93200.31;5068118;28;20049;-61
2023/10/22 03:41:20;;;;;;;5.60;3.13;;;;;;;6.32;100.00;93206.63;5067523;28;20044;-62
2023/10/22 03:43:47;;;;;;;5.93;2.90;;;;;;;6.31;100.00;93202.31;5068089;28;20048;-61
2023/10/22 03:46:14;;;;;;;15.57;8.38;;;;;;;6.29;100.00;93204.69;5068056;28;20434;-61
2023/10/22 03:48:41;;;;;;;8.18;3.75;;;;;;;6.05;100.00;93211.94;5064915;28;20049;-62
2023/10/22 03:51:08;;;;;;;5.32;3.00;;;;;;;6.01;100.00;93211.19;5068215;28;20049;-61
2023/10/22 03:53:39;;;;;;;5.43;2.50;;;;;;;6.04;100.00;93206.88;5049971;28;20036;-61
2023/10/22 03:56:05;;;;;;;5.20;2.60;;;;;;;6.06;100.00;93213.50;5067867;28;20051;-61
2023/10/22 03:58:32;;;;;;;5.75;2.28;;;;;;;6.02;100.00;93215.47;5067459;28;20040;-61
2023/10/22 04:00:59;;;;;;;5.70;2.50;;;;;;;5.98;100.00;93212.78;5067910;28;20048;-62
2023/10/22 04:03:26;;;;;;;6.55;2.80;;;;;;;6.01;100.00;93219.38;5067432;28;20052;-61
2023/10/22 04:05:55;;;;;;;5.85;3.10;;;;;;;5.99;100.00;93217.03;5049761;28;20313;-61
2023/10/22 04:08:23;;;;;;;6.40;2.70;;;;;;;5.94;100.00;93225.63;5067634;28;20041;-61
2023/10/22 04:10:51;;;;;;;5.43;2.50;;;;;;;5.84;100.00;93223.00;5067291;28;20281;-61
2023/10/22 04:13:18;;;;;;;4.15;2.10;;;;;;;5.80;100.00;93233.91;5067827;28;20056;-61
2023/10/22 04:15:45;;;;;;;5.18;2.38;;;;;;;5.70;100.00;93226.63;5067163;28;20325;-62
2023/10/22 04:18:16;;;;;;;5.25;2.53;;;;;;;5.67;100.00;93230.91;5067800;28;20398;-61
2023/10/22 04:20:43;;;;;;;4.67;2.73;;;;;;;5.61;100.00;93235.22;5066952;28;20513;-61
2023/10/22 04:23:10;;;;;;;5.20;2.20;;;;;;;5.61;100.00;93243.38;5067823;28;20033;-62
2023/10/22 04:25:40;;;;;;;5.85;2.30;;;;;;;5.55;100.00;93236.81;5066695;28;20055;-62
2023/10/22 04:28:07;;;;;;;5.50;2.40;;;;;;;5.56;100.00;93238.38;5067374;28;20057;-61
2023/10/22 04:30:38;;;;;;;5.75;2.05;;;;;;;5.54;100.00;93233.34;5066943;28;20055;-61
2023/10/22 04:33:05;;;;;;;5.20;2.10;;;;;;;5.50;100.00;93234.53;5067410;28;20040;-61
2023/10/22 04:35:33;;;;;;;3.55;1.90;;;;;;;5.48;100.00;93245.81;5067171;28;20051;-61
2023/10/22 04:38:00;;;;;;;3.70;1.90;;;;;;;5.40;100.00;93244.31;5054213;28;20420;-61
2023/10/22 04:40:36;;;;;;;3.15;1.52;;;;;;;5.34;100.00;93248.63;5067368;28;20053;-61
2023/10/22 04:43:03;;;;;;;5.82;2.10;;;;;;;5.29;100.00;93254.47;5067630;28;20037;-61
2023/10/22 04:45:30;;;;;;;5.43;2.57;;;;;;;5.17;100.00;93250.28;5066989;28;20482;-61
2023/10/22 04:47:56;;;;;;;6.75;3.22;;;;;;;4.98;100.00;93257.75;5067411;28;20063;-61
2023/10/22 04:50:29;;;;;;;12.23;6.95;;;;;;;5.08;100.00;93249.94;5064530;28;20049;-59
2023/10/22 04:52:57;;;;;;;20.75;8.32;;;;;;;5.14;100.00;93256.53;5067506;28;20044;-59
2023/10/22 04:55:24;;;;;;;13.95;6.38;;;;;;;5.13;100.00;93258.47;5066617;28;20041;-59
2023/10/22 04:57:51;;;;;;;10.93;5.07;;;;;;;5.11;100.00;93260.81;5049217;28;20097;-59
2023/10/22 05:00:18;;;;;;;10.93;4.50;;;;;;;5.09;100.00;93262.38;5067203;28;20075;-60
2023/10/22 05:02:45;;;;;;;7.15;2.88;;;;;;;5.06;100.00;93265.88;5066642;28;20893;-60
2023/10/22 05:05:12;;;;;;;5.30;2.55;;;;;;;5.07;100.00;93267.44;5066663;28;20056;-60
2023/10/22 05:07:39;;;;;;;5.00;2.42;;;;;;;5.05;100.00;93276.00;5066413;28;20272;-59
2023/10/22 05:10:06;;;;;;;5.50;2.83;;;;;;;4.90;100.00;93279.94;5066670;28;21086;-59
2023/10/22 05:12:33;;;;;;;6.22;2.67;;;;;;;4.92;100.00;93272.94;5066709;28;20563;-59
2023/10/22 05:15:00;;;;;;;5.80;2.80;;;;;;;4.95;100.00;93276.78;5067048;28;20044;-59
2023/10/22 05:17:26;;;;;;;10.65;4.38;;;;;;;4.81;100.00;93269.50;5066721;28;20376;-59
2023/10/22 05:19:53;;;;;;;6.50;3.92;;;;;;;4.85;100.00;93269.47;5066860;28;20045;-59
2023/10/22 05:22:20;;;;;;;5.57;3.30;;;;;;;4.90;100.00;93279.94;5053039;28;20041;-59
2023/10/22 05:24:48;;;;;;;5.63;3.15;;;;;;;4.88;100.00;93280.34;5070454;28;20040;-59
2023/10/22 05:27:16;;;;;;;6.50;3.15;;;;;;;4.86;100.00;93285.38;5070801;28;20056;-59
2023/10/22 05:29:46;;;;;;;6.85;3.05;;;;;;;4.79;100.00;93288.16;5069889;28;20045;-59
2023/10/22 05:32:16;;;;;;;5.65;2.72;;;;;;;4.75;100.00;93293.59;5070977;28;20113;-59
2023/10/22 05:34:43;;;;;;;5.20;2.33;;;;;;;4.74;100.00;93305.63;5069372;28;20040;-60
2023/10/22 05:37:10;;;;;;;7.45;3.20;;;;;;;4.74;100.00;93302.91;5070819;28;20044;-60
2023/10/22 05:39:39;;;;;;;6.22;3.83;;;;;;;4.73;100.00;93298.66;5069738;28;20046;-61
2023/10/22 05:42:06;;;;;;;6.60;3.60;;;;;;;4.73;100.00;93301.38;5036418;28;20052;-60
2023/10/22 05:44:36;;;;;;;6.65;3.63;;;;;;;4.74;100.00;93305.63;5056632;28;20045;-60
2023/10/22 05:47:04;;;;;;;6.80;3.20;;;;;;;4.75;100.00;93306.41;5070318;28;20047;-60
2023/10/22 05:49:31;;;;;;;5.22;3.05;;;;;;;4.76;100.00;93307.94;5069912;28;20047;-60
2023/10/22 05:51:58;;;;;;;7.03;3.33;;;;;;;4.75;100.00;93312.63;5070256;28;20157;-60
2023/10/22 05:54:24;;;;;;;5.53;2.90;;;;;;;4.76;100.00;93316.09;5069960;28;20040;-60
2023/10/22 05:56:51;;;;;;;6.28;2.80;;;;;;;4.77;100.00;93321.16;5069913;28;20040;-60
2023/10/22 05:59:18;;;;;;;5.23;2.80;;;;;;;4.73;100.00;93323.13;5070176;28;20052;-60
2023/10/22 06:01:45;;;;;;;8.32;4.00;;;;;;;4.67;100.00;93330.13;5069329;28;20040;-62
2023/10/22 06:04:12;;;;;;;10.88;4.57;;;;;;;4.69;100.00;93326.97;5069585;28;20046;-60
2023/10/22 06:06:38;;;;;;;8.35;4.00;;;;;;;4.72;100.00;93326.22;5051302;28;20056;-61
2023/10/22 06:09:05;;;;;;;7.28;3.72;;;;;;;4.63;100.00;93336.72;5070087;28;20045;-61
2023/10/22 06:11:32;;;;;;;5.83;3.17;;;;;;;4.72;100.00;93337.84;5068938;28;20049;-60
2023/10/22 06:13:59;;;;;;;6.97;3.00;;;;;;;4.76;100.00;93337.84;5067266;28;20040;-60
2023/10/22 06:16:26;;;;;;;5.70;2.90;;;;;;;4.83;100.00;93345.19;5068631;28;20047;-60
2023/10/22 06:18:53;;;;;;;8.45;3.45;;;;;;;4.79;100.00;93343.28;5069467;28;20093;-61
2023/10/22 06:21:20;;;;;;;7.72;3.85;;;;;;;4.89;100.00;93349.06;5069682;28;20040;-63
2023/10/22 06:23:49;;;;;;;8.03;3.77;;;;;;;5.13;100.00;93356.38;5067538;28;20071;-60
2023/10/22 06:26:16;;;;;;;8.25;3.90;;;;;;;5.09;100.00;93352.91;5069941;28;20440;-60
2023/10/22 06:28:43;;;;;;;7.53;4.10;;;;;;;5.11;100.00;93361.44;5069401;28;20051;-61
2023/10/22 06:31:12;;;;;;;16.40;9.30;;;;;;;5.29;100.00;93357.88;5069461;28;20048;-61
2023/10/22 06:33:41;;;;;;;12.20;7.30;;;;;;;5.47;100.00;93371.38;5068682;28;20052;-60
2023/10/22 06:36:20;;;;;;;10.67;6.10;;;;;;;5.59;100.00;93381.81;5069903;28;20040;-60
2023/10/22 06:38:48;;;;;;;9.52;5.10;;;;;;;5.49;100.00;93379.94;5056052;28;20260;-61
2023/10/22 06:41:21;;;;;;;8.90;5.28;;;;;;;5.45;100.00;93381.91;5051720;28;20055;-61
2023/10/22 06:43:48;;;;;;;12.30;6.03;;;;;;;5.43;100.00;93376.06;5068309;28;21629;-60
2023/10/22 06:46:19;;;;;;;10.50;5.45;;;;;;;5.45;100.00;93374.50;5069281;28;20056;-61
2023/10/22 06:48:46;;;;;;;9.70;4.93;;;;;;;5.38;100.00;93366.38;5068134;28;20637;-60
2023/10/22 06:51:18;;;;;;;10.90;5.55;;;;;;;5.51;100.00;93374.88;5069011;28;20052;-60
2023/10/22 06:53:46;;;;;;;19.75;8.38;;;;;;;6.32;100.00;93370.13;5050179;28;20528;-59
2023/10/22 06:56:15;;;;;;;26.30;11.95;;;;;;;8.62;100.00;93363.81;5069340;28;20392;-59
2023/10/22 06:58:44;;;;;;;17.67;8.18;;;;;;;11.03;100.00;93359.53;5068352;28;20429;-61
2023/10/22 07:01:12;;;;;;;11.30;6.70;;;;;;;12.79;100.00;93355.97;5069064;28;20054;-61
2023/10/22 07:03:41;;;;;;;10.57;5.95;;;;;;;13.98;100.00;93355.41;5068368;28;20036;-60
2023/10/22 07:06:08;;;;;;;10.52;6.78;;;;;;;15.28;96.23;93355.84;5068946;28;20044;-60
2023/10/22 07:08:35;;;;;;;10.63;6.60;;;;;;;15.15;90.76;93355.97;5067815;28;20044;-60
2023/10/22 07:11:02;;;;;;;9.65;6.13;;;;;;;16.82;92.84;93362.81;5068634;28;20049;-61
2023/10/22 07:13:29;;;;;;;9.80;5.73;;;;;;;16.98;86.40;93361.63;5050513;28;20048;-61
2023/10/22 07:15:56;;;;;;;8.48;5.20;;;;;;;16.83;85.14;93363.59;5045807;28;20060;-61
2023/10/22 07:18:23;;;;;;;7.78;5.53;;;;;;;16.67;84.20;93373.78;5064588;28;20392;-62
2023/10/22 07:20:50;;;;;;;9.65;5.00;;;;;;;14.21;95.16;93383.75;5067861;28;20451;-61
2023/10/22 07:23:17;;;;;;;7.82;5.30;;;;;;;13.69;99.97;93386.03;5068539;28;20101;-62
2023/10/22 07:25:44;;;;;;;8.40;5.90;;;;;;;15.30;92.02;93384.56;5068064;28;20388;-60
2023/10/22 07:28:15;;;;;;;6.45;4.40;;;;;;;17.04;79.01;93376.38;5068497;28;20135;-61
2023/10/22 07:30:47;;;;;;;5.47;3.83;;;;;;;18.26;73.71;93378.53;5068119;28;20040;-64
2023/10/22 07:33:17;;;;;;;5.50;3.78;;;;;;;19.16;67.45;93379.97;5068663;28;20535;-61
2023/10/22 07:36:05;;;;;;;4.93;3.20;;;;;;;20.12;63.15;93374.81;5067560;28;20049;-61
2023/10/22 07:38:32;;;;;;;4.70;3.10;;;;;;;21.34;58.07;93372.75;5067585;28;20093;-61
2023/10/22 07:41:00;;;;;;;4.35;3.33;;;;;;;22.51;52.78;93390.47;5068425;28;20060;-61
2023/10/22 07:43:28;;;;;;;5.25;3.92;;;;;;;20.76;52.44;93392.41;5067450;28;20105;-61
2023/10/22 07:45:59;;;;;;;5.55;3.42;;;;;;;21.93;51.08;93394.38;5067683;28;20033;-61
2023/10/22 07:48:26;;;;;;;4.93;3.50;;;;;;;22.52;52.63;93394.81;5067330;28;20147;-61
2023/10/22 07:50:53;;;;;;;5.50;3.50;;;;;;;23.88;48.76;93399.00;5067535;28;20036;-61
2023/10/22 07:53:21;;;;;;;6.13;3.67;;;;;;;24.82;44.99;93395.44;5067668;28;20374;-61
2023/10/22 07:55:48;;;;;;;4.60;3.20;;;;;;;25.13;44.12;93390.59;5067706;28;20407;-61
2023/10/22 07:58:15;;;;;;;4.97;3.00;;;;;;;23.59;44.28;93414.34;5050264;28;20489;-62
2023/10/22 08:00:41;;;;;;;4.25;2.10;;;;;;;21.89;47.64;93407.84;5067093;28;20490;-61
2023/10/22 08:03:08;;;;;;;4.17;2.30;;;;;;;20.74;51.43;93412.44;5067871;28;20041;-61
2023/10/22 08:05:35;;;;;;;4.07;1.65;;;;;;;21.61;49.76;93410.50;5066843;28;20085;-61
2023/10/22 08:08:02;;;;;;;5.25;1.33;;;;;;;19.00;57.26;93421.47;5067670;28;20048;-61
2023/10/22 08:10:28;;;;;;;2.47;1.10;;;;;;;20.29;54.63;93408.44;5067288;28;20165;-62
2023/10/22 08:12:55;;;;;;;3.67;1.30;;;;;;;20.39;55.87;93411.81;5067904;28;20044;-61
2023/10/22 08:15:22;;;;;;;3.60;1.00;;;;;;;19.65;58.09;93424.88;5067099;28;20045;-61
2023/10/22 08:17:49;;;;;;;2.72;0.98;;;;;;;18.14;61.56;93412.91;5067736;28;20036;-60
2023/10/22 08:20:16;;;;;;;2.85;1.17;;;;;;;19.03;61.70;93421.25;5067590;28;20057;-61
2023/10/22 08:22:42;;;;;;;4.72;1.20;;;;;;;20.17;56.67;93417.94;5067020;28;20082;-61
2023/10/22 08:25:09;;;;;;;3.05;1.17;;;;;;;19.42;56.89;93420.28;5067493;28;20070;-61
2023/10/22 08:27:36;;;;;;;2.53;1.00;;;;;;;19.34;56.69;93415.13;5049550;28;20485;-61
2023/10/22 08:30:03;;;;;;;3.83;1.20;;;;;;;19.83;56.88;93418.31;5067205;28;20037;-61
2023/10/22 08:32:33;;;;;;;3.20;1.20;;;;;;;21.46;50.80;93398.72;5067200;28;20052;-61
2023/10/22 08:35:03;;;;;;;2.40;0.75;;;;;;;20.26;50.44;93414.97;5067267;28;20043;-61
2023/10/22 08:37:29;;;;;;;3.58;1.17;;;;;;;18.29;57.61;93422.03;5067037;28;20086;-61
2023/10/22 08:39:56;;;;;;;2.73;1.00;;;;;;;19.25;59.39;93420.81;5067584;28;20040;-62
2023/10/22 08:42:23;;;;;;;2.97;1.10;;;;;;;17.67;60.34;93418.06;5066692;28;20051;-60
2023/10/22 08:44:52;;;;;;;3.53;1.10;;;;;;;19.32;61.83;93425.97;5067446;28;20055;-61
2023/10/22 08:47:19;;;;;;;2.72;0.90;;;;;;;21.21;51.72;93412.28;5067327;28;20508;-61
2023/10/22 08:49:48;;;;;;;2.95;1.02;;;;;;;21.45;51.07;93419.53;5065733;28;20550;-61
2023/10/22 08:52:15;;;;;;;3.97;1.10;;;;;;;20.78;49.59;93420.56;5067459;28;20050;-61
2023/10/22 08:54:46;;;;;;;3.83;1.42;;;;;;;20.56;48.80;93412.72;5049517;28;20040;-62
2023/10/22 08:57:13;;;;;;;4.18;1.20;;;;;;;19.53;51.10;93420.44;5053568;28;20041;-61
2023/10/22 08:59:40;;;;;;;4.05;1.40;;;;;;;19.44;54.67;93421.34;5070680;28;20863;-62
2023/10/22 09:02:09;;;;;;;3.25;0.95;;;;;;;21.78;48.21;93410.56;5071422;28;20070;-61
2023/10/22 09:04:37;;;;;;;3.20;1.03;;;;;;;19.42;52.36;93425.84;5070680;28;20404;-61
2023/10/22 09:07:04;;;;;;;3.33;1.13;;;;;;;20.08;53.76;93419.63;5071621;28;20044;-61
2023/10/22 09:09:36;;;;;;;3.35;0.90;;;;;;;19.71;50.43;93425.00;5070664;28;20511;-61
2023/10/22 09:12:10;;;;;;;3.47;0.90;;;;;;;19.61;51.25;93420.78;5071043;28;20378;-60
2023/10/22 09:14:37;;;;;;;2.30;0.75;;;;;;;19.58;48.94;93416.97;5070123;28;20085;-61
2023/10/22 09:17:24;;;;;;;2.30;0.90;;;;;;;22.53;45.97;93410.31;5071029;28;20463;-61
2023/10/22 09:19:52;;;;;;;2.33;0.80;;;;;;;20.07;47.22;93420.84;5069570;28;21381;-61
2023/10/22 09:22:24;;;;;;;3.40;0.90;;;;;;;21.91;45.63;93415.69;5071012;28;20036;-61
2023/10/22 09:24:56;;;;;;;2.13;0.90;;;;;;;23.31;42.47;93420.00;5070012;28;20396;-61
2023/10/22 09:27:27;;;;;;;2.25;0.80;;;;;;;21.67;44.09;93422.47;5057878;28;20529;-61
2023/10/22 09:29:56;;;;;;;2.83;0.80;;;;;;;20.27;45.89;93425.63;5070459;28;20436;-61
2023/10/22 09:32:22;;;;;;;2.60;0.77;;;;;;;17.31;52.48;93441.25;5070065;28;20059;-60
2023/10/22 09:34:49;;;;;;;2.40;0.80;;;;;;;18.89;50.71;93439.47;5070596;28;20045;-60
2023/10/22 09:37:16;;;;;;;2.25;0.90;;;;;;;17.51;54.56;93444.22;5070548;28;20049;-61
2023/10/22 09:39:44;;;;;;;2.10;0.93;;;;;;;17.49;54.63;93437.63;5069838;28;20044;-60
2023/10/22 09:42:13;;;;;;;2.97;0.90;;;;;;;15.75;60.05;93455.03;5070269;28;20059;-60
2023/10/22 09:44:44;;;;;;;3.13;0.80;;;;;;;17.56;55.52;93440.03;5069414;28;20054;-60
2023/10/22 09:47:22;;;;;;;2.28;1.00;;;;;;;17.82;55.21;93443.06;5070320;28;20113;-61
2023/10/22 09:50:00;;;;;;;2.30;1.00;;;;;;;19.72;50.35;93444.00;5048081;28;20544;-61
2023/10/22 09:52:31;;;;;;;2.92;1.10;;;;;;;22.19;46.26;93440.94;5070086;28;20048;-61
2023/10/22 09:55:00;;;;;;;2.67;0.70;;;;;;;23.55;42.01;93433.47;5070480;28;20024;-61
2023/10/22 09:57:31;;;;;;;2.40;0.70;;;;;;;22.74;42.52;93427.63;5068762;28;20058;-61
2023/10/22 10:00:01;;;;;;;2.65;0.80;;;;;;;20.83;44.73;93430.25;5069846;28;20147;-61
2023/10/22 10:02:29;;;;;;;2.72;1.00;;;;;;;18.51;52.05;93435.56;5069571;28;20101;-61
2023/10/22 10:04:56;;;;;;;2.65;1.00;;;;;;;17.54;53.34;93440.50;5069555;28;20047;-60
2023/10/22 10:07:25;;;;;;;1.90;0.90;;;;;;;17.85;54.04;93452.47;5068735;28;20047;-61
2023/10/22 10:09:55;;;;;;;2.63;0.70;;;;;;;18.62;51.99;93443.31;5069715;28;20043;-61
2023/10/22 10:12:24;;;;;;;2.10;0.90;;;;;;;20.34;46.47;93450.28;5069640;28;20052;-61
2023/10/22 10:14:52;;;;;;;2.10;0.90;;;;;;;18.31;50.97;93443.78;5069377;28;20428;-63
2023/10/22 10:17:22;;;;;;;2.75;1.00;;;;;;;20.97;46.57;93445.28;5070090;28;20044;-61
2023/10/22 10:19:49;;;;;;;2.13;0.80;;;;;;;22.72;42.92;93444.16;5068839;28;20427;-63
2023/10/22 10:22:42;;;;;;;2.92;0.70;;;;;;;25.05;37.59;93445.78;5069645;28;20405;-61
2023/10/22 10:25:26;;;;;;;2.05;0.80;;;;;;;26.26;34.29;93423.19;5068609;28;20577;-62
2023/10/22 10:27:53;;;;;;;2.13;0.60;;;;;;;26.78;31.45;93416.34;5068412;28;20666;-62
2023/10/22 10:30:20;;;;;;;2.63;0.90;;;;;;;23.02;36.88;93424.09;5069219;28;20049;-62
2023/10/22 10:32:50;;;;;;;3.10;0.80;;;;;;;21.92;39.70;93423.56;5068789;28;22041;-62
2023/10/22 10:35:48;;;;;;;2.13;0.80;;;;;;;22.47;38.41;93429.88;5069298;28;20093;-62
2023/10/22 10:38:15;;;;;;;2.67;0.98;;;;;;;21.12;40.32;93438.31;5069093;28;20052;-62
2023/10/22 10:40:44;;;;;;;4.05;0.80;;;;;;;20.64;41.63;93433.34;5068922;28;20044;-61
2023/10/22 10:43:11;;;;;;;3.92;0.90;;;;;;;21.41;42.30;93438.50;5069200;28;20059;-62
2023/10/22 10:45:41;;;;;;;3.03;0.70;;;;;;;24.11;37.27;93429.75;5068966;28;20062;-62
2023/10/22 10:48:43;;;;;;;3.30;0.85;;;;;;;22.76;37.53;93436.28;5049803;28;20165;-61
2023/10/22 10:51:22;;;;;;;2.53;1.00;;;;;;;21.83;39.99;93431.41;5060587;28;20067;-62
2023/10/22 10:54:01;;;;;;;2.30;0.85;;;;;;;22.86;39.01;93443.16;5064668;28;20796;-61
2023/10/22 10:56:48;;;;;;;4.65;1.23;;;;;;;25.37;35.15;93445.31;5068801;28;20044;-62
2023/10/22 10:59:31;;;;;;;2.27;0.60;;;;;;;20.74;39.65;93451.47;5068934;28;20044;-61
2023/10/22 11:02:02;;;;;;;1.98;0.70;;;;;;;21.00;40.85;93447.09;5049765;28;20052;-61
2023/10/22 11:04:30;;;;;;;2.50;0.77;;;;;;;22.79;37.96;93434.50;5050436;28;20078;-63
2023/10/22 11:06:58;;;;;;;2.05;0.70;;;;;;;22.42;36.86;93433.44;5068273;28;20101;-62
2023/10/22 11:09:45;;;;;;;2.03;0.70;;;;;;;20.41;41.42;93437.19;5068315;28;20155;-61
2023/10/22 11:12:13;;;;;;;1.70;0.60;;;;;;;22.70;37.57;93427.88;5068881;28;20041;-61
2023/10/22 11:14:40;;;;;;;2.60;0.75;;;;;;;22.08;37.63;93426.94;5066755;28;20121;-62
2023/10/22 11:17:07;;;;;;;2.90;0.75;;;;;;;23.18;36.44;93416.97;5064639;28;20036;-61
2023/10/22 11:19:34;;;;;;;2.80;0.75;;;;;;;24.09;35.82;93418.31;5067871;28;20493;-62
2023/10/22 11:22:02;;;;;;;2.95;0.80;;;;;;;24.77;35.04;93415.13;5068380;28;20436;-62
2023/10/22 11:24:33;;;;;;;1.77;0.60;;;;;;;24.58;34.58;93421.38;5068131;28;20442;-62
2023/10/22 11:27:04;;;;;;;2.53;0.90;;;;;;;22.10;37.18;93416.03;5068197;28;20040;-61
2023/10/22 11:29:41;;;;;;;2.63;0.73;;;;;;;22.96;36.01;93421.28;5067922;28;20052;-61
2023/10/22 11:32:16;;;;;;;2.53;0.80;;;;;;;22.66;37.41;93421.78;5068284;28;20041;-61
2023/10/22 11:34:53;;;;;;;3.35;0.90;;;;;;;21.40;38.78;93423.78;5067628;28;20046;-62
2023/10/22 11:37:21;;;;;;;2.07;0.70;;;;;;;20.14;41.31;93425.22;5067995;28;20064;-61